createdAt,value
2023-01-04T00:00:17.297Z,1.13
2023-01-04T00:02:45.925Z,1.13
2023-01-04T00:05:14.529Z,1.30
2023-01-04T00:07:43.117Z,1.50
2023-01-04T00:10:11.761Z,1.60
2023-01-04T00:12:41.694Z,1.20
2023-01-04T00:15:10.886Z,1.30
2023-01-04T00:17:39.475Z,1.10
2023-01-04T00:20:08.261Z,1.20
2023-01-04T00:22:36.897Z,1.23
2023-01-04T00:25:05.742Z,1.30
2023-01-04T00:27:34.326Z,1.10
2023-01-04T00:30:04.314Z,1.23
2023-01-04T00:32:33.253Z,1.30
2023-01-04T00:35:01.830Z,1.10
2023-01-04T00:37:30.432Z,1.10
2023-01-04T00:39:59.012Z,1.30
2023-01-04T00:42:27.615Z,1.10
2023-01-04T00:44:56.171Z,1.20
2023-01-04T00:47:26.069Z,1.33
2023-01-04T00:49:54.649Z,1.30
2023-01-04T00:52:23.163Z,1.30
2023-01-04T00:54:51.753Z,1.10
2023-01-04T00:57:20.357Z,1.20
2023-01-04T00:59:48.878Z,1.20
2023-01-04T01:02:17.759Z,1.17
2023-01-04T01:04:47.801Z,1.10
2023-01-04T01:07:16.700Z,1.20
2023-01-04T01:09:45.274Z,1.23
2023-01-04T01:12:14.008Z,1.20
2023-01-04T01:14:42.592Z,1.67
2023-01-04T01:17:12.351Z,1.67
2023-01-04T01:19:40.976Z,1.10
2023-01-04T01:22:11.033Z,1.30
2023-01-04T01:24:39.642Z,1.30
2023-01-04T01:27:08.415Z,1.00
2023-01-04T01:29:37.004Z,1.20
2023-01-04T01:32:05.858Z,1.03
2023-01-04T01:34:34.471Z,1.30
2023-01-04T01:37:03.108Z,1.13
2023-01-04T01:39:32.964Z,1.20
2023-01-04T01:42:01.535Z,0.97
2023-01-04T01:44:48.492Z,1.10
2023-01-04T01:47:18.170Z,1.17
2023-01-04T01:49:47.996Z,1.23
2023-01-04T01:52:17.766Z,0.97
2023-01-04T01:54:49.029Z,1.00
2023-01-04T01:57:19.933Z,1.30
2023-01-04T01:59:50.428Z,1.00
2023-01-04T02:02:19.208Z,0.80
2023-01-04T02:04:49.066Z,0.80
2023-01-04T02:07:22.879Z,1.10
2023-01-04T02:09:53.093Z,1.13
2023-01-04T02:12:21.720Z,1.00
2023-01-04T02:14:52.151Z,0.73
2023-01-04T02:17:25.621Z,1.00
2023-01-04T02:20:10.369Z,1.10
2023-01-04T02:22:50.921Z,1.00
2023-01-04T02:25:29.040Z,1.00
2023-01-04T02:27:59.590Z,0.90
2023-01-04T02:30:43.752Z,0.67
2023-01-04T02:33:20.745Z,0.70
2023-01-04T02:35:55.237Z,0.87
2023-01-04T02:38:25.752Z,0.83
2023-01-04T02:40:58.799Z,0.90
2023-01-04T02:43:49.989Z,0.73
2023-01-04T02:46:23.585Z,0.90
2023-01-04T02:49:11.533Z,0.70
2023-01-04T02:51:40.555Z,0.50
2023-01-04T02:54:10.457Z,0.80
2023-01-04T02:56:46.003Z,0.53
2023-01-04T02:59:24.679Z,0.60
2023-01-04T03:02:16.365Z,0.33
2023-01-04T03:05:09.138Z,0.50
2023-01-04T03:07:41.196Z,0.73
2023-01-04T03:10:11.822Z,0.40
2023-01-04T03:12:43.889Z,0.70
2023-01-04T03:15:14.866Z,0.43
2023-01-04T03:17:46.546Z,0.50
2023-01-04T03:20:18.065Z,0.60
2023-01-04T03:23:06.423Z,0.40
2023-01-04T03:25:53.541Z,0.50
2023-01-04T03:28:41.581Z,0.40
2023-01-04T03:31:30.897Z,0.40
2023-01-04T03:34:17.396Z,0.37
2023-01-04T03:36:53.060Z,0.40
2023-01-04T03:39:43.088Z,0.33
2023-01-04T03:42:33.517Z,0.40
2023-01-04T03:45:23.416Z,0.33
2023-01-04T03:48:13.975Z,0.67
2023-01-04T03:50:44.282Z,0.60
2023-01-04T03:53:14.996Z,0.30
2023-01-04T03:55:44.980Z,0.40
2023-01-04T03:58:13.842Z,0.33
2023-01-04T04:00:42.485Z,0.57
2023-01-04T04:03:11.105Z,0.30
2023-01-04T04:05:58.913Z,0.40
2023-01-04T04:08:29.364Z,0.43
2023-01-04T04:11:19.334Z,0.33
2023-01-04T04:13:48.013Z,0.50
2023-01-04T04:16:16.861Z,0.50
2023-01-04T04:18:45.597Z,0.60
2023-01-04T04:21:14.212Z,0.50
2023-01-04T04:23:44.825Z,0.40
2023-01-04T04:26:13.406Z,0.30
2023-01-04T04:28:42.076Z,0.40
2023-01-04T04:31:10.963Z,0.33
2023-01-04T04:33:39.877Z,0.53
2023-01-04T04:36:08.599Z,0.40
2023-01-04T04:38:37.540Z,0.50
2023-01-04T04:41:28.796Z,0.40
2023-01-04T04:43:57.600Z,0.40
2023-01-04T04:46:26.316Z,0.30
2023-01-04T04:48:54.873Z,0.27
2023-01-04T04:51:23.592Z,0.57
2023-01-04T04:53:52.196Z,0.40
2023-01-04T04:56:22.209Z,0.30
2023-01-04T04:58:50.790Z,0.40
2023-01-04T05:01:19.564Z,0.50
2023-01-04T05:03:48.447Z,0.30
2023-01-04T05:06:17.046Z,0.40
2023-01-04T05:08:45.631Z,0.50
2023-01-04T05:11:14.628Z,0.40
2023-01-04T05:13:43.591Z,0.43
2023-01-04T05:16:12.414Z,0.60
2023-01-04T05:18:41.018Z,0.47
2023-01-04T05:21:09.625Z,0.37
2023-01-04T05:23:38.235Z,0.60
2023-01-04T05:26:06.959Z,0.50
2023-01-04T05:28:35.465Z,0.40
2023-01-04T05:31:04.507Z,0.47
2023-01-04T05:33:34.223Z,0.60
2023-01-04T05:36:04.011Z,0.40
2023-01-04T05:38:33.304Z,0.50
2023-01-04T05:41:01.850Z,0.60
2023-01-04T05:43:30.441Z,0.40
2023-01-04T05:45:58.991Z,0.57
2023-01-04T05:48:29.046Z,0.40
2023-01-04T05:50:57.624Z,0.40
2023-01-04T05:53:26.204Z,0.40
2023-01-04T05:55:54.811Z,0.47
2023-01-04T05:58:23.410Z,0.50
2023-01-04T06:00:52.473Z,0.57
2023-01-04T06:03:21.102Z,0.50
2023-01-04T06:05:52.307Z,0.53
2023-01-04T06:08:20.889Z,0.50
2023-01-04T06:10:54.397Z,0.60
2023-01-04T06:13:22.944Z,0.70
2023-01-04T06:15:51.579Z,0.70
2023-01-04T06:18:20.090Z,0.50
2023-01-04T06:20:48.599Z,0.60
2023-01-04T06:23:18.421Z,0.53
2023-01-04T06:25:46.945Z,0.47
2023-01-04T06:28:15.490Z,0.43
2023-01-04T06:30:44.119Z,0.60
2023-01-04T06:33:12.723Z,0.73
2023-01-04T06:35:41.192Z,0.60
2023-01-04T06:38:09.761Z,0.80
2023-01-04T06:40:39.552Z,0.80
2023-01-04T06:43:08.017Z,0.60
2023-01-04T06:45:36.563Z,0.40
2023-01-04T06:48:09.066Z,0.70
2023-01-04T06:50:38.070Z,0.57
2023-01-04T06:53:06.723Z,0.50
2023-01-04T06:55:35.235Z,0.70
2023-01-04T06:58:05.066Z,0.60
2023-01-04T07:00:33.578Z,0.70
2023-01-04T07:03:14.203Z,0.50
2023-01-04T07:05:44.308Z,0.50
2023-01-04T07:08:13.307Z,0.40
2023-01-04T07:10:42.205Z,0.50
2023-01-04T07:13:12.382Z,0.53
2023-01-04T07:15:41.429Z,0.57
2023-01-04T07:18:10.414Z,0.40
2023-01-04T07:20:38.941Z,0.40
2023-01-04T07:23:07.843Z,0.50
2023-01-04T07:25:36.389Z,0.57
2023-01-04T07:28:05.262Z,0.40
2023-01-04T07:30:35.160Z,0.63
2023-01-04T07:33:03.735Z,0.40
2023-01-04T07:35:32.399Z,0.60
2023-01-04T07:38:00.979Z,0.40
2023-01-04T07:40:29.752Z,0.50
2023-01-04T07:42:58.890Z,0.60
2023-01-04T07:45:27.739Z,0.37
2023-01-04T07:47:59.265Z,0.50
2023-01-04T07:50:28.013Z,0.50
2023-01-04T07:52:57.112Z,0.50
2023-01-04T07:55:25.611Z,0.70
2023-01-04T07:57:55.145Z,0.50
2023-01-04T08:00:23.843Z,0.50
2023-01-04T08:02:52.499Z,0.53
2023-01-04T08:05:24.897Z,0.50
2023-01-04T08:07:53.796Z,0.40
2023-01-04T08:10:22.895Z,0.53
2023-01-04T08:12:51.401Z,0.50
2023-01-04T08:15:19.946Z,0.40
2023-01-04T08:17:48.429Z,0.50
2023-01-04T08:20:17.143Z,0.50
2023-01-04T08:22:47.074Z,0.50
2023-01-04T08:25:15.621Z,0.50
2023-01-04T08:27:44.514Z,0.50
2023-01-04T08:30:13.207Z,0.50
2023-01-04T08:32:41.924Z,0.53
2023-01-04T08:35:10.524Z,0.50
2023-01-04T08:37:39.060Z,0.50
2023-01-04T08:40:10.027Z,0.50
2023-01-04T08:42:38.649Z,0.43
2023-01-04T08:45:07.658Z,0.50
2023-01-04T08:47:36.193Z,0.40
2023-01-04T08:50:10.240Z,0.40
2023-01-04T08:52:39.182Z,0.60
2023-01-04T08:55:13.322Z,0.50
2023-01-04T08:57:42.604Z,0.43
2023-01-04T09:00:11.890Z,0.50
2023-01-04T09:02:40.624Z,0.40
2023-01-04T09:05:09.908Z,0.30
2023-01-04T09:07:38.535Z,0.40
2023-01-04T09:10:09.212Z,0.30
2023-01-04T09:12:37.860Z,0.33
2023-01-04T09:15:07.007Z,0.50
2023-01-04T09:17:42.516Z,0.40
2023-01-04T09:20:24.127Z,0.37
2023-01-04T09:22:52.724Z,0.57
2023-01-04T09:25:22.808Z,0.50
2023-01-04T09:27:51.493Z,0.50
2023-01-04T09:30:20.179Z,0.70
2023-01-04T09:32:48.749Z,0.60
2023-01-04T09:35:17.393Z,0.40
2023-01-04T09:37:45.954Z,0.50
2023-01-04T09:40:20.819Z,0.70
2023-01-04T09:42:51.093Z,0.60
2023-01-04T09:45:39.796Z,0.40
2023-01-04T09:48:12.718Z,0.50
2023-01-04T09:50:46.334Z,0.60
2023-01-04T09:53:18.133Z,0.60
2023-01-04T09:55:50.316Z,0.40
2023-01-04T09:58:22.865Z,0.40
2023-01-04T10:01:02.513Z,0.60
2023-01-04T10:03:32.649Z,0.50
2023-01-04T10:06:02.524Z,0.70
2023-01-04T10:08:32.397Z,0.70
2023-01-04T10:11:17.272Z,0.70
2023-01-04T10:14:03.468Z,0.80
2023-01-04T10:17:11.785Z,0.70
2023-01-04T10:22:27.629Z,0.70
2023-01-04T10:25:01.001Z,0.77
2023-01-04T10:27:42.282Z,0.70
2023-01-04T10:30:20.576Z,0.67
2023-01-04T10:32:53.745Z,0.90
2023-01-04T10:35:23.419Z,0.70
2023-01-04T10:37:54.221Z,0.70
2023-01-04T10:40:22.853Z,0.90
2023-01-04T10:42:57.673Z,0.70
2023-01-04T10:45:33.752Z,0.60
2023-01-04T10:48:06.696Z,0.80
2023-01-04T10:50:38.050Z,0.73
2023-01-04T10:53:09.454Z,0.80
2023-01-04T10:55:40.694Z,1.20
2023-01-04T10:58:33.336Z,0.90
2023-01-04T11:01:06.552Z,0.73
2023-01-04T11:03:36.919Z,0.73
2023-01-04T11:06:09.496Z,0.73
2023-01-04T11:08:39.566Z,1.00
2023-01-04T11:11:11.455Z,0.70
2023-01-04T11:13:40.021Z,0.70
2023-01-04T11:16:10.286Z,0.90
2023-01-04T11:18:41.181Z,0.70
2023-01-04T11:21:12.275Z,0.70
2023-01-04T11:23:40.827Z,0.60
2023-01-04T11:26:11.832Z,0.60
2023-01-04T11:28:42.922Z,0.70
2023-01-04T11:31:18.333Z,0.63
2023-01-04T11:33:54.189Z,0.80
2023-01-04T11:36:38.511Z,0.60
2023-01-04T11:39:08.010Z,0.70
2023-01-04T11:41:36.521Z,0.93
2023-01-04T11:44:06.963Z,0.60
2023-01-04T11:46:37.909Z,0.90
2023-01-04T11:49:06.779Z,0.60
2023-01-04T11:51:37.571Z,0.60
2023-01-04T11:54:07.743Z,0.60
2023-01-04T11:56:37.222Z,0.60
2023-01-04T11:59:07.320Z,0.60
2023-01-04T12:01:36.899Z,0.50
2023-01-04T12:04:11.325Z,0.40
2023-01-04T12:06:42.629Z,0.50
2023-01-04T12:09:14.636Z,0.40
2023-01-04T12:11:44.931Z,0.53
2023-01-04T12:14:19.957Z,0.40
2023-01-04T12:16:50.672Z,0.50
2023-01-04T12:19:21.014Z,0.60
2023-01-04T12:21:51.236Z,0.37
2023-01-04T12:24:21.380Z,0.50
2023-01-04T12:26:50.844Z,0.53
2023-01-04T12:29:41.526Z,0.50
2023-01-04T12:32:29.062Z,0.50
2023-01-04T12:34:58.933Z,0.60
2023-01-04T12:37:45.958Z,0.50
2023-01-04T12:40:29.547Z,0.50
2023-01-04T12:43:16.109Z,0.33
2023-01-04T12:45:44.749Z,0.50
2023-01-04T12:48:42.213Z,0.30
2023-01-04T12:51:51.670Z,0.50
2023-01-04T12:54:24.365Z,0.50
2023-01-04T12:57:11.692Z,0.50
2023-01-04T12:59:41.580Z,0.60
2023-01-04T13:02:16.671Z,0.70
2023-01-04T13:04:45.695Z,0.60
2023-01-04T13:07:20.681Z,0.50
2023-01-04T13:09:54.030Z,0.50
2023-01-04T13:12:33.563Z,0.70
2023-01-04T13:15:05.383Z,0.70
2023-01-04T13:17:39.883Z,0.60
2023-01-04T13:20:15.490Z,0.50
2023-01-04T13:22:49.853Z,0.60
2023-01-04T13:25:18.971Z,0.60
2023-01-04T13:28:05.223Z,0.50
2023-01-04T13:30:35.292Z,0.53
2023-01-04T13:33:27.426Z,0.60
2023-01-04T13:36:03.204Z,0.30
2023-01-04T13:38:34.894Z,0.50
2023-01-04T13:41:04.588Z,0.40
2023-01-04T13:43:44.480Z,0.40
2023-01-04T13:46:17.246Z,0.40
2023-01-04T13:48:47.753Z,0.53
2023-01-04T13:51:17.867Z,0.50
2023-01-04T13:53:58.031Z,0.47
2023-01-04T13:56:27.725Z,0.50
2023-01-04T13:58:56.416Z,0.47
2023-01-04T14:01:26.566Z,0.43
2023-01-04T14:03:56.561Z,0.50
2023-01-04T14:06:27.873Z,0.40
2023-01-04T14:09:09.022Z,0.40
2023-01-04T14:12:07.448Z,0.50
2023-01-04T14:14:39.241Z,0.30
2023-01-04T14:17:18.813Z,0.40
2023-01-04T14:19:48.382Z,0.40
2023-01-04T14:22:36.645Z,0.40
2023-01-04T14:25:20.133Z,0.30
2023-01-04T14:27:52.090Z,0.60
2023-01-04T14:30:29.716Z,0.40
2023-01-04T14:32:59.574Z,0.50
2023-01-04T14:35:29.168Z,0.50
2023-01-04T14:38:03.879Z,0.40
2023-01-04T14:40:33.089Z,0.30
2023-01-04T14:43:03.059Z,0.40
2023-01-04T14:45:31.709Z,0.40
2023-01-04T14:48:00.265Z,0.60
2023-01-04T14:50:28.749Z,0.60
2023-01-04T14:52:57.219Z,0.60
2023-01-04T14:55:25.847Z,0.50
2023-01-04T14:57:54.393Z,0.40
2023-01-04T15:00:24.385Z,0.53
2023-01-04T15:02:53.083Z,0.70
2023-01-04T15:05:22.581Z,0.60
2023-01-04T15:07:51.125Z,0.63
2023-01-04T15:10:22.512Z,0.50
2023-01-04T15:12:51.281Z,0.50
2023-01-04T15:15:20.241Z,0.50
2023-01-04T15:17:50.181Z,0.60
2023-01-04T15:20:18.846Z,0.60
2023-01-04T15:22:47.383Z,0.63
2023-01-04T15:25:16.054Z,0.60
2023-01-04T15:27:44.652Z,0.50
2023-01-04T15:30:13.675Z,0.47
2023-01-04T15:32:42.331Z,0.60
2023-01-04T15:35:16.274Z,0.60
2023-01-04T15:37:44.885Z,0.50
2023-01-04T15:40:14.060Z,0.40
2023-01-04T15:43:00.981Z,0.70
2023-01-04T15:45:30.034Z,0.70
2023-01-04T15:48:03.046Z,0.70
2023-01-04T15:50:35.123Z,1.00
2023-01-04T15:53:03.834Z,0.60
2023-01-04T15:55:36.320Z,0.70
2023-01-04T15:58:05.171Z,0.60
2023-01-04T16:00:33.700Z,0.73
2023-01-04T16:03:02.306Z,0.80
2023-01-04T16:05:30.975Z,0.80
2023-01-04T16:08:00.851Z,0.70
2023-01-04T16:10:29.564Z,0.70
2023-01-04T16:12:58.144Z,0.90
2023-01-04T16:15:26.729Z,0.60
2023-01-04T16:17:56.136Z,0.70
2023-01-04T16:20:24.734Z,0.70
2023-01-04T16:22:53.191Z,0.60
2023-01-04T16:25:23.123Z,0.60
2023-01-04T16:27:51.618Z,0.63
2023-01-04T16:30:27.808Z,0.80
2023-01-04T16:32:58.123Z,0.70
2023-01-04T16:35:26.708Z,0.73
2023-01-04T16:37:55.211Z,0.70
2023-01-04T16:40:25.521Z,1.00
2023-01-04T16:42:53.971Z,1.00
2023-01-04T16:45:22.539Z,1.40
2023-01-04T16:47:51.351Z,1.77
2023-01-04T16:50:19.866Z,1.80
2023-01-04T16:52:48.405Z,1.97
2023-01-04T16:55:23.388Z,2.37
2023-01-04T16:57:53.832Z,1.93
2023-01-04T17:00:22.369Z,2.27
2023-01-04T17:02:50.928Z,2.60
2023-01-04T17:05:19.495Z,2.30
2023-01-04T17:07:47.997Z,2.30
2023-01-04T17:10:16.655Z,2.23
2023-01-04T17:12:47.715Z,2.33
2023-01-04T17:18:07.018Z,2.10
2023-01-04T17:20:35.625Z,2.27
2023-01-04T17:23:04.210Z,2.30
2023-01-04T17:25:32.847Z,2.37
2023-01-04T17:28:01.396Z,2.33
2023-01-04T17:30:31.314Z,3.10
2023-01-04T17:32:59.853Z,2.47
2023-01-04T17:35:28.360Z,2.77
2023-01-04T17:37:56.921Z,2.60
2023-01-04T17:40:25.602Z,2.70
2023-01-04T17:42:54.273Z,2.67
2023-01-04T17:45:22.971Z,2.80
2023-01-04T17:47:53.031Z,2.87
2023-01-04T17:50:22.116Z,2.80
2023-01-04T17:52:51.168Z,2.93
2023-01-04T17:55:20.405Z,3.00
2023-01-04T17:57:49.047Z,3.13
2023-01-04T18:00:17.892Z,2.83
2023-01-04T18:02:46.581Z,2.83
2023-01-04T18:05:16.697Z,3.20
2023-01-04T18:07:45.316Z,2.90
2023-01-04T18:10:21.400Z,2.90
2023-01-04T18:13:03.608Z,3.37
2023-01-04T18:15:36.237Z,3.03
2023-01-04T18:18:08.105Z,3.20
2023-01-04T18:20:38.106Z,3.30
2023-01-04T18:23:06.669Z,3.10
2023-01-04T18:25:35.350Z,3.10
2023-01-04T18:28:03.922Z,2.90
2023-01-04T18:30:32.563Z,3.53
2023-01-04T18:33:01.121Z,3.37
2023-01-04T18:35:29.862Z,3.80
2023-01-04T18:37:59.809Z,3.57
2023-01-04T18:40:28.391Z,2.93
2023-01-04T18:42:57.017Z,3.60
2023-01-04T18:45:25.636Z,3.20
2023-01-04T18:47:54.232Z,3.27
2023-01-04T18:50:22.790Z,3.60
2023-01-04T18:52:51.375Z,3.43
2023-01-04T18:55:21.270Z,3.33
2023-01-04T18:57:49.848Z,3.33
2023-01-04T19:00:18.652Z,3.40
2023-01-04T19:02:47.348Z,2.90
2023-01-04T19:05:18.825Z,3.60
2023-01-04T19:07:47.397Z,3.77
2023-01-04T19:10:16.042Z,3.10
2023-01-04T19:12:45.963Z,3.23
2023-01-04T19:15:14.534Z,3.30
2023-01-04T19:17:43.143Z,3.43
2023-01-04T19:20:12.125Z,3.70
2023-01-04T19:22:40.765Z,3.13
2023-01-04T19:25:09.627Z,3.50
2023-01-04T19:27:38.210Z,3.07
2023-01-04T19:30:09.159Z,3.17
2023-01-04T19:32:37.798Z,3.40
2023-01-04T19:35:06.725Z,3.67
2023-01-04T19:37:35.242Z,3.73
2023-01-04T19:40:03.802Z,3.60
2023-01-04T19:42:32.687Z,3.23
2023-01-04T19:45:01.155Z,3.40
2023-01-04T19:47:31.020Z,3.37
2023-01-04T19:49:59.921Z,3.03
2023-01-04T19:52:30.675Z,3.33
2023-01-04T19:54:59.287Z,3.10
2023-01-04T19:57:28.101Z,3.00
2023-01-04T19:59:56.606Z,3.00
2023-01-04T20:02:25.338Z,3.00
2023-01-04T20:04:55.295Z,3.53
2023-01-04T20:07:23.892Z,2.97
2023-01-04T20:09:52.365Z,3.27
2023-01-04T20:12:21.944Z,2.90
2023-01-04T20:14:50.575Z,3.00
2023-01-04T20:17:19.087Z,3.33
2023-01-04T20:19:47.605Z,3.20
2023-01-04T20:22:17.502Z,2.57
2023-01-04T20:24:47.146Z,3.10
2023-01-04T20:27:15.767Z,3.10
2023-01-04T20:29:44.428Z,3.53
2023-01-04T20:32:13.013Z,3.00
2023-01-04T20:34:41.652Z,3.23
2023-01-04T20:37:10.188Z,2.73
2023-01-04T20:39:40.192Z,2.53
2023-01-04T20:42:26.521Z,3.40
2023-01-04T20:44:55.208Z,3.13
2023-01-04T20:47:23.768Z,2.70
2023-01-04T20:49:52.357Z,2.37
2023-01-04T20:52:20.880Z,2.93
2023-01-04T20:54:51.453Z,2.60
2023-01-04T20:57:19.998Z,2.53
2023-01-04T20:59:48.655Z,2.40
2023-01-04T21:02:17.317Z,2.27
2023-01-04T21:04:46.792Z,2.60
2023-01-04T21:07:15.357Z,2.20
2023-01-04T21:09:43.981Z,2.30
2023-01-04T21:12:13.904Z,2.20
2023-01-04T21:14:43.171Z,1.80
2023-01-04T21:17:11.713Z,2.23
2023-01-04T21:19:40.300Z,2.33
2023-01-04T21:22:08.909Z,1.87
2023-01-04T21:24:37.729Z,2.17
2023-01-04T21:27:06.349Z,2.20
2023-01-04T21:29:36.268Z,2.37
2023-01-04T21:32:04.789Z,2.50
2023-01-04T21:34:33.697Z,2.37
2023-01-04T21:37:02.252Z,2.40
2023-01-04T21:39:30.810Z,2.23
2023-01-04T21:41:59.346Z,2.10
2023-01-04T21:44:27.959Z,2.20
2023-01-04T21:46:57.867Z,2.50
2023-01-04T21:49:26.506Z,2.20
2023-01-04T21:51:55.080Z,2.27
2023-01-04T21:54:23.672Z,2.23
2023-01-04T21:56:52.225Z,2.80
2023-01-04T21:59:20.828Z,2.37
2023-01-04T22:01:49.430Z,3.13
2023-01-04T22:04:19.494Z,2.60
2023-01-04T22:06:48.061Z,1.73
2023-01-04T22:09:16.620Z,2.00
2023-01-04T22:11:45.844Z,2.37
2023-01-04T22:14:14.408Z,2.20
2023-01-04T22:16:42.962Z,2.33
2023-01-04T22:19:13.350Z,2.50
2023-01-04T22:21:43.419Z,2.77
2023-01-04T22:24:13.195Z,2.03
2023-01-04T22:26:42.050Z,2.50
2023-01-04T22:29:12.962Z,2.57
2023-01-04T22:31:41.628Z,2.37
2023-01-04T22:34:10.273Z,2.40
2023-01-04T22:36:38.861Z,2.47
2023-01-04T22:39:08.844Z,2.30
2023-01-04T22:41:40.010Z,2.33
2023-01-04T22:44:08.813Z,2.33
2023-01-04T22:46:37.406Z,2.77
2023-01-04T22:49:06.195Z,2.47
2023-01-04T22:51:34.918Z,2.90
2023-01-04T22:54:05.519Z,2.47
2023-01-04T22:56:35.485Z,2.33
2023-01-04T22:59:04.096Z,2.00
2023-01-04T23:01:34.089Z,3.03
2023-01-04T23:04:03.590Z,2.23
2023-01-04T23:06:33.045Z,2.50
2023-01-04T23:09:02.734Z,2.20
2023-01-04T23:11:32.213Z,2.60
2023-01-04T23:14:02.994Z,2.20
2023-01-04T23:16:33.001Z,2.67
2023-01-04T23:19:02.070Z,2.50
2023-01-04T23:21:30.667Z,2.40
2023-01-04T23:23:59.485Z,2.47
2023-01-04T23:26:29.165Z,2.50
2023-01-04T23:28:57.809Z,2.77
2023-01-04T23:31:28.856Z,2.63
2023-01-04T23:33:58.288Z,2.40
2023-01-04T23:36:28.472Z,2.97
2023-01-04T23:38:58.002Z,2.83
2023-01-04T23:41:44.350Z,2.60
2023-01-04T23:44:17.178Z,2.50
2023-01-04T23:46:47.724Z,2.60
2023-01-04T23:49:16.264Z,2.67
2023-01-04T23:51:44.845Z,2.10
2023-01-04T23:54:13.416Z,2.77
2023-01-04T23:56:42.298Z,2.70
2023-01-04T23:59:11.189Z,2.93
